sensor_id;sensor_type;location;lat;lon;timestamp;P1;durP1;ratioP1;P2;durP2;ratioP2
3465;SDS011;1747;48.884;9.160;2023-11-19T00:01:00;2.28;;;1.60;;
3465;SDS011;1747;48.884;9.160;2023-11-19T00:03:30;1.38;;;1.23;;
3465;SDS011;1747;48.884;9.160;2023-11-19T00:05:58;2.22;;;1.38;;
3465;SDS011;1747;48.884;9.160;2023-11-19T00:11:47;1.33;;;1.08;;
3465;SDS011;1747;48.884;9.160;2023-11-19T00:14:15;2.88;;;1.50;;
3465;SDS011;1747;48.884;9.160;2023-11-19T00:16:42;1.90;;;1.20;;
3465;SDS011;1747;48.884;9.160;2023-11-19T00:19:09;1.73;;;1.13;;
3465;SDS011;1747;48.884;9.160;2023-11-19T00:21:35;0.95;;;0.85;;
3465;SDS011;1747;48.884;9.160;2023-11-19T00:24:02;1.02;;;0.70;;
3465;SDS011;1747;48.884;9.160;2023-11-19T00:26:29;0.68;;;0.60;;
3465;SDS011;1747;48.884;9.160;2023-11-19T00:28:56;5.05;;;0.80;;
3465;SDS011;1747;48.884;9.160;2023-11-19T00:31:25;3.33;;;1.00;;
3465;SDS011;1747;48.884;9.160;2023-11-19T00:33:52;1.48;;;0.90;;
3465;SDS011;1747;48.884;9.160;2023-11-19T00:36:19;1.35;;;0.65;;
3465;SDS011;1747;48.884;9.160;2023-11-19T00:38:49;1.58;;;0.90;;
3465;SDS011;1747;48.884;9.160;2023-11-19T00:41:17;0.93;;;0.68;;
3465;SDS011;1747;48.884;9.160;2023-11-19T00:43:44;1.65;;;0.90;;
3465;SDS011;1747;48.884;9.160;2023-11-19T00:46:11;1.75;;;0.50;;
3465;SDS011;1747;48.884;9.160;2023-11-19T00:48:40;1.88;;;0.68;;
3465;SDS011;1747;48.884;9.160;2023-11-19T00:51:07;1.20;;;0.60;;
3465;SDS011;1747;48.884;9.160;2023-11-19T00:53:33;2.65;;;0.80;;
3465;SDS011;1747;48.884;9.160;2023-11-19T00:56:00;0.90;;;0.70;;
3465;SDS011;1747;48.884;9.160;2023-11-19T00:58:27;2.15;;;0.95;;
3465;SDS011;1747;48.884;9.160;2023-11-19T01:00:54;0.43;;;0.40;;
3465;SDS011;1747;48.884;9.160;2023-11-19T01:03:22;0.45;;;0.40;;
3465;SDS011;1747;48.884;9.160;2023-11-19T01:05:50;0.50;;;0.50;;
3465;SDS011;1747;48.884;9.160;2023-11-19T01:08:17;1.35;;;0.60;;
3465;SDS011;1747;48.884;9.160;2023-11-19T01:10:44;0.38;;;0.38;;
3465;SDS011;1747;48.884;9.160;2023-11-19T01:13:11;0.77;;;0.65;;
3465;SDS011;1747;48.884;9.160;2023-11-19T01:15:38;0.70;;;0.57;;
3465;SDS011;1747;48.884;9.160;2023-11-19T01:18:06;0.68;;;0.40;;
3465;SDS011;1747;48.884;9.160;2023-11-19T01:20:34;1.67;;;0.80;;
3465;SDS011;1747;48.884;9.160;2023-11-19T01:23:02;0.57;;;0.40;;
3465;SDS011;1747;48.884;9.160;2023-11-19T01:25:29;0.38;;;0.38;;
3465;SDS011;1747;48.884;9.160;2023-11-19T01:27:56;0.75;;;0.50;;
3465;SDS011;1747;48.884;9.160;2023-11-19T01:30:24;1.15;;;0.40;;
3465;SDS011;1747;48.884;9.160;2023-11-19T01:32:51;1.15;;;0.40;;
3465;SDS011;1747;48.884;9.160;2023-11-19T01:35:18;0.98;;;0.40;;
3465;SDS011;1747;48.884;9.160;2023-11-19T01:37:44;0.50;;;0.30;;
3465;SDS011;1747;48.884;9.160;2023-11-19T01:40:13;3.35;;;0.40;;
3465;SDS011;1747;48.884;9.160;2023-11-19T01:42:40;0.40;;;0.40;;
3465;SDS011;1747;48.884;9.160;2023-11-19T01:45:07;0.85;;;0.40;;
3465;SDS011;1747;48.884;9.160;2023-11-19T01:47:35;0.32;;;0.30;;
3465;SDS011;1747;48.884;9.160;2023-11-19T01:50:02;0.43;;;0.35;;
3465;SDS011;1747;48.884;9.160;2023-11-19T01:52:32;0.32;;;0.30;;
3465;SDS011;1747;48.884;9.160;2023-11-19T01:55:03;0.68;;;0.30;;
3465;SDS011;1747;48.884;9.160;2023-11-19T01:57:32;0.30;;;0.30;;
3465;SDS011;1747;48.884;9.160;2023-11-19T01:59:59;0.80;;;0.30;;
3465;SDS011;1747;48.884;9.160;2023-11-19T02:02:27;0.22;;;0.22;;
3465;SDS011;1747;48.884;9.160;2023-11-19T02:04:54;0.60;;;0.30;;
3465;SDS011;1747;48.884;9.160;2023-11-19T02:07:21;0.45;;;0.20;;
3465;SDS011;1747;48.884;9.160;2023-11-19T02:09:48;2.92;;;0.30;;
3465;SDS011;1747;48.884;9.160;2023-11-19T02:12:15;0.47;;;0.30;;
3465;SDS011;1747;48.884;9.160;2023-11-19T02:14:43;0.40;;;0.20;;
3465;SDS011;1747;48.884;9.160;2023-11-19T02:17:24;0.20;;;0.20;;
3465;SDS011;1747;48.884;9.160;2023-11-19T02:19:52;0.20;;;0.20;;
3465;SDS011;1747;48.884;9.160;2023-11-19T02:22:19;0.40;;;0.30;;
3465;SDS011;1747;48.884;9.160;2023-11-19T02:24:46;0.38;;;0.20;;
3465;SDS011;1747;48.884;9.160;2023-11-19T02:27:16;0.28;;;0.20;;
3465;SDS011;1747;48.884;9.160;2023-11-19T02:29:55;3.65;;;0.30;;
3465;SDS011;1747;48.884;9.160;2023-11-19T02:32:23;0.90;;;0.20;;
3465;SDS011;1747;48.884;9.160;2023-11-19T02:34:53;0.28;;;0.20;;
3465;SDS011;1747;48.884;9.160;2023-11-19T02:37:20;0.20;;;0.20;;
3465;SDS011;1747;48.884;9.160;2023-11-19T02:39:47;0.25;;;0.20;;
3465;SDS011;1747;48.884;9.160;2023-11-19T02:42:14;0.20;;;0.20;;
3465;SDS011;1747;48.884;9.160;2023-11-19T02:44:43;0.30;;;0.20;;
3465;SDS011;1747;48.884;9.160;2023-11-19T02:47:11;0.25;;;0.20;;
3465;SDS011;1747;48.884;9.160;2023-11-19T02:49:38;0.40;;;0.20;;
3465;SDS011;1747;48.884;9.160;2023-11-19T02:52:05;0.40;;;0.20;;
3465;SDS011;1747;48.884;9.160;2023-11-19T02:54:35;1.45;;;0.20;;
3465;SDS011;1747;48.884;9.160;2023-11-19T02:57:02;0.20;;;0.20;;
3465;SDS011;1747;48.884;9.160;2023-11-19T02:59:38;0.75;;;0.10;;
3465;SDS011;1747;48.884;9.160;2023-11-19T03:02:08;0.20;;;0.20;;
3465;SDS011;1747;48.884;9.160;2023-11-19T03:04:44;0.20;;;0.20;;
3465;SDS011;1747;48.884;9.160;2023-11-19T03:09:58;1.05;;;0.25;;
3465;SDS011;1747;48.884;9.160;2023-11-19T03:12:55;0.30;;;0.30;;
3465;SDS011;1747;48.884;9.160;2023-11-19T03:16:13;0.28;;;0.28;;
3465;SDS011;1747;48.884;9.160;2023-11-19T03:18:41;0.38;;;0.20;;
3465;SDS011;1747;48.884;9.160;2023-11-19T03:21:10;0.35;;;0.20;;
3465;SDS011;1747;48.884;9.160;2023-11-19T03:23:37;0.32;;;0.25;;
3465;SDS011;1747;48.884;9.160;2023-11-19T03:26:05;0.40;;;0.30;;
3465;SDS011;1747;48.884;9.160;2023-11-19T03:28:33;0.32;;;0.25;;
3465;SDS011;1747;48.884;9.160;2023-11-19T03:30:59;0.20;;;0.20;;
3465;SDS011;1747;48.884;9.160;2023-11-19T03:33:26;0.25;;;0.20;;
3465;SDS011;1747;48.884;9.160;2023-11-19T03:35:53;0.20;;;0.20;;
3465;SDS011;1747;48.884;9.160;2023-11-19T03:38:36;0.20;;;0.20;;
3465;SDS011;1747;48.884;9.160;2023-11-19T03:41:09;0.75;;;0.20;;
3465;SDS011;1747;48.884;9.160;2023-11-19T03:43:36;0.38;;;0.20;;
3465;SDS011;1747;48.884;9.160;2023-11-19T03:46:03;1.90;;;0.30;;
3465;SDS011;1747;48.884;9.160;2023-11-19T03:48:31;0.85;;;0.30;;
3465;SDS011;1747;48.884;9.160;2023-11-19T03:50:57;0.50;;;0.20;;
3465;SDS011;1747;48.884;9.160;2023-11-19T03:53:24;0.65;;;0.30;;
3465;SDS011;1747;48.884;9.160;2023-11-19T03:55:52;0.22;;;0.22;;
3465;SDS011;1747;48.884;9.160;2023-11-19T03:58:19;0.20;;;0.20;;
3465;SDS011;1747;48.884;9.160;2023-11-19T04:00:46;0.45;;;0.20;;
3465;SDS011;1747;48.884;9.160;2023-11-19T04:03:13;0.85;;;0.30;;
3465;SDS011;1747;48.884;9.160;2023-11-19T04:05:40;0.20;;;0.20;;
3465;SDS011;1747;48.884;9.160;2023-11-19T04:08:08;1.48;;;0.15;;
3465;SDS011;1747;48.884;9.160;2023-11-19T04:10:35;0.35;;;0.25;;
3465;SDS011;1747;48.884;9.160;2023-11-19T04:13:03;0.25;;;0.20;;
3465;SDS011;1747;48.884;9.160;2023-11-19T04:15:30;0.45;;;0.30;;
3465;SDS011;1747;48.884;9.160;2023-11-19T04:17:56;2.05;;;0.32;;
3465;SDS011;1747;48.884;9.160;2023-11-19T04:20:23;0.20;;;0.20;;
3465;SDS011;1747;48.884;9.160;2023-11-19T04:22:50;0.55;;;0.45;;
3465;SDS011;1747;48.884;9.160;2023-11-19T04:25:18;1.50;;;0.43;;
3465;SDS011;1747;48.884;9.160;2023-11-19T04:27:45;0.50;;;0.50;;
3465;SDS011;1747;48.884;9.160;2023-11-19T04:30:14;2.20;;;1.05;;
3465;SDS011;1747;48.884;9.160;2023-11-19T04:32:41;2.30;;;1.58;;
3465;SDS011;1747;48.884;9.160;2023-11-19T04:35:09;1.70;;;1.60;;
3465;SDS011;1747;48.884;9.160;2023-11-19T04:37:36;2.35;;;2.03;;
3465;SDS011;1747;48.884;9.160;2023-11-19T04:40:03;4.68;;;2.30;;
3465;SDS011;1747;48.884;9.160;2023-11-19T04:42:31;3.35;;;2.55;;
3465;SDS011;1747;48.884;9.160;2023-11-19T04:44:58;2.80;;;2.45;;
3465;SDS011;1747;48.884;9.160;2023-11-19T04:47:48;3.00;;;2.67;;
3465;SDS011;1747;48.884;9.160;2023-11-19T04:50:16;2.42;;;2.22;;
3465;SDS011;1747;48.884;9.160;2023-11-19T04:52:43;2.47;;;2.22;;
3465;SDS011;1747;48.884;9.160;2023-11-19T04:55:12;1.63;;;1.52;;
3465;SDS011;1747;48.884;9.160;2023-11-19T04:57:39;0.73;;;0.60;;
3465;SDS011;1747;48.884;9.160;2023-11-19T05:00:06;0.70;;;0.40;;
3465;SDS011;1747;48.884;9.160;2023-11-19T05:02:35;0.20;;;0.20;;
3465;SDS011;1747;48.884;9.160;2023-11-19T05:05:04;1.58;;;0.30;;
3465;SDS011;1747;48.884;9.160;2023-11-19T05:07:31;1.27;;;0.20;;
3465;SDS011;1747;48.884;9.160;2023-11-19T05:09:58;1.65;;;0.20;;
3465;SDS011;1747;48.884;9.160;2023-11-19T05:12:25;0.20;;;0.20;;
3465;SDS011;1747;48.884;9.160;2023-11-19T05:14:52;0.65;;;0.25;;
3465;SDS011;1747;48.884;9.160;2023-11-19T05:17:19;0.25;;;0.20;;
3465;SDS011;1747;48.884;9.160;2023-11-19T05:19:46;0.10;;;0.10;;
3465;SDS011;1747;48.884;9.160;2023-11-19T05:22:14;0.20;;;0.20;;
3465;SDS011;1747;48.884;9.160;2023-11-19T05:24:41;0.22;;;0.20;;
3465;SDS011;1747;48.884;9.160;2023-11-19T05:27:08;2.38;;;0.20;;
3465;SDS011;1747;48.884;9.160;2023-11-19T05:29:36;0.43;;;0.20;;
3465;SDS011;1747;48.884;9.160;2023-11-19T05:32:04;0.20;;;0.20;;
3465;SDS011;1747;48.884;9.160;2023-11-19T05:34:32;1.15;;;0.38;;
3465;SDS011;1747;48.884;9.160;2023-11-19T05:36:58;0.30;;;0.30;;
3465;SDS011;1747;48.884;9.160;2023-11-19T05:39:27;0.47;;;0.30;;
3465;SDS011;1747;48.884;9.160;2023-11-19T05:41:54;0.43;;;0.20;;
3465;SDS011;1747;48.884;9.160;2023-11-19T05:44:21;0.22;;;0.20;;
3465;SDS011;1747;48.884;9.160;2023-11-19T05:46:48;0.63;;;0.17;;
3465;SDS011;1747;48.884;9.160;2023-11-19T05:49:14;0.15;;;0.15;;
3465;SDS011;1747;48.884;9.160;2023-11-19T05:51:41;0.10;;;0.10;;
3465;SDS011;1747;48.884;9.160;2023-11-19T05:54:08;0.60;;;0.15;;
3465;SDS011;1747;48.884;9.160;2023-11-19T05:56:37;0.10;;;0.10;;
3465;SDS011;1747;48.884;9.160;2023-11-19T05:59:04;1.38;;;0.10;;
3465;SDS011;1747;48.884;9.160;2023-11-19T06:01:34;0.20;;;0.20;;
3465;SDS011;1747;48.884;9.160;2023-11-19T06:04:01;0.20;;;0.17;;
3465;SDS011;1747;48.884;9.160;2023-11-19T06:06:28;0.20;;;0.20;;
3465;SDS011;1747;48.884;9.160;2023-11-19T06:08:55;0.88;;;0.20;;
3465;SDS011;1747;48.884;9.160;2023-11-19T06:11:22;0.10;;;0.10;;
3465;SDS011;1747;48.884;9.160;2023-11-19T06:13:53;0.10;;;0.10;;
3465;SDS011;1747;48.884;9.160;2023-11-19T06:16:20;2.30;;;0.20;;
3465;SDS011;1747;48.884;9.160;2023-11-19T06:18:47;0.20;;;0.20;;
3465;SDS011;1747;48.884;9.160;2023-11-19T06:21:13;0.68;;;0.20;;
3465;SDS011;1747;48.884;9.160;2023-11-19T06:23:41;0.60;;;0.20;;
3465;SDS011;1747;48.884;9.160;2023-11-19T06:26:08;0.43;;;0.30;;
3465;SDS011;1747;48.884;9.160;2023-11-19T06:28:35;0.25;;;0.25;;
3465;SDS011;1747;48.884;9.160;2023-11-19T06:31:04;4.10;;;0.30;;
3465;SDS011;1747;48.884;9.160;2023-11-19T06:33:31;0.40;;;0.22;;
3465;SDS011;1747;48.884;9.160;2023-11-19T06:35:58;0.45;;;0.20;;
3465;SDS011;1747;48.884;9.160;2023-11-19T06:38:25;0.17;;;0.17;;
3465;SDS011;1747;48.884;9.160;2023-11-19T06:40:52;0.20;;;0.20;;
3465;SDS011;1747;48.884;9.160;2023-11-19T06:43:19;0.40;;;0.28;;
3465;SDS011;1747;48.884;9.160;2023-11-19T06:45:46;0.63;;;0.30;;
3465;SDS011;1747;48.884;9.160;2023-11-19T06:48:14;0.40;;;0.38;;
3465;SDS011;1747;48.884;9.160;2023-11-19T06:50:41;0.30;;;0.30;;
3465;SDS011;1747;48.884;9.160;2023-11-19T06:53:07;1.45;;;0.20;;
3465;SDS011;1747;48.884;9.160;2023-11-19T06:55:35;1.50;;;1.25;;
3465;SDS011;1747;48.884;9.160;2023-11-19T06:58:02;0.30;;;0.30;;
3465;SDS011;1747;48.884;9.160;2023-11-19T07:00:29;0.20;;;0.20;;
3465;SDS011;1747;48.884;9.160;2023-11-19T07:02:57;0.20;;;0.20;;
3465;SDS011;1747;48.884;9.160;2023-11-19T07:05:25;2.13;;;0.30;;
3465;SDS011;1747;48.884;9.160;2023-11-19T07:07:53;0.35;;;0.35;;
3465;SDS011;1747;48.884;9.160;2023-11-19T07:10:20;0.95;;;0.93;;
3465;SDS011;1747;48.884;9.160;2023-11-19T07:12:47;0.98;;;0.43;;
3465;SDS011;1747;48.884;9.160;2023-11-19T07:15:15;0.77;;;0.20;;
3465;SDS011;1747;48.884;9.160;2023-11-19T07:17:43;0.73;;;0.17;;
3465;SDS011;1747;48.884;9.160;2023-11-19T07:20:11;0.22;;;0.20;;
3465;SDS011;1747;48.884;9.160;2023-11-19T07:22:42;0.20;;;0.20;;
3465;SDS011;1747;48.884;9.160;2023-11-19T07:25:10;0.20;;;0.10;;
3465;SDS011;1747;48.884;9.160;2023-11-19T07:27:38;0.28;;;0.20;;
3465;SDS011;1747;48.884;9.160;2023-11-19T07:30:06;2.45;;;0.90;;
3465;SDS011;1747;48.884;9.160;2023-11-19T07:32:33;0.98;;;0.30;;
3465;SDS011;1747;48.884;9.160;2023-11-19T07:35:00;1.30;;;0.30;;
3465;SDS011;1747;48.884;9.160;2023-11-19T07:37:27;1.48;;;0.60;;
3465;SDS011;1747;48.884;9.160;2023-11-19T07:39:55;0.40;;;0.40;;
3465;SDS011;1747;48.884;9.160;2023-11-19T07:42:22;0.20;;;0.20;;
3465;SDS011;1747;48.884;9.160;2023-11-19T07:44:49;1.38;;;0.20;;
3465;SDS011;1747;48.884;9.160;2023-11-19T07:47:16;0.28;;;0.20;;
3465;SDS011;1747;48.884;9.160;2023-11-19T07:49:42;0.68;;;0.17;;
3465;SDS011;1747;48.884;9.160;2023-11-19T07:52:09;0.20;;;0.20;;
3465;SDS011;1747;48.884;9.160;2023-11-19T07:54:36;0.25;;;0.25;;
3465;SDS011;1747;48.884;9.160;2023-11-19T07:57:05;0.30;;;0.25;;
3465;SDS011;1747;48.884;9.160;2023-11-19T07:59:31;0.82;;;0.30;;
3465;SDS011;1747;48.884;9.160;2023-11-19T08:01:58;0.50;;;0.50;;
3465;SDS011;1747;48.884;9.160;2023-11-19T08:04:28;0.63;;;0.40;;
3465;SDS011;1747;48.884;9.160;2023-11-19T08:06:55;0.55;;;0.30;;
3465;SDS011;1747;48.884;9.160;2023-11-19T08:09:22;0.47;;;0.30;;
3465;SDS011;1747;48.884;9.160;2023-11-19T08:11:49;0.68;;;0.25;;
3465;SDS011;1747;48.884;9.160;2023-11-19T08:14:17;0.63;;;0.55;;
3465;SDS011;1747;48.884;9.160;2023-11-19T08:16:44;1.25;;;0.30;;
3465;SDS011;1747;48.884;9.160;2023-11-19T08:19:11;0.60;;;0.32;;
3465;SDS011;1747;48.884;9.160;2023-11-19T08:21:38;0.20;;;0.20;;
3465;SDS011;1747;48.884;9.160;2023-11-19T08:24:05;0.20;;;0.20;;
3465;SDS011;1747;48.884;9.160;2023-11-19T08:26:32;0.43;;;0.30;;
3465;SDS011;1747;48.884;9.160;2023-11-19T08:28:59;0.30;;;0.30;;
3465;SDS011;1747;48.884;9.160;2023-11-19T08:31:27;0.20;;;0.20;;
3465;SDS011;1747;48.884;9.160;2023-11-19T08:33:54;1.00;;;0.30;;
3465;SDS011;1747;48.884;9.160;2023-11-19T08:36:20;0.20;;;0.20;;
3465;SDS011;1747;48.884;9.160;2023-11-19T08:38:47;0.40;;;0.20;;
3465;SDS011;1747;48.884;9.160;2023-11-19T08:41:14;0.30;;;0.30;;
3465;SDS011;1747;48.884;9.160;2023-11-19T08:43:42;1.95;;;0.30;;
3465;SDS011;1747;48.884;9.160;2023-11-19T08:46:09;0.32;;;0.30;;
3465;SDS011;1747;48.884;9.160;2023-11-19T08:48:38;0.63;;;0.20;;
3465;SDS011;1747;48.884;9.160;2023-11-19T08:51:05;1.55;;;0.40;;
3465;SDS011;1747;48.884;9.160;2023-11-19T08:53:32;3.15;;;0.40;;
3465;SDS011;1747;48.884;9.160;2023-11-19T08:55:59;2.15;;;0.50;;
3465;SDS011;1747;48.884;9.160;2023-11-19T08:58:27;1.65;;;0.50;;
3465;SDS011;1747;48.884;9.160;2023-11-19T09:00:55;0.52;;;0.50;;
3465;SDS011;1747;48.884;9.160;2023-11-19T09:03:22;3.92;;;0.50;;
3465;SDS011;1747;48.884;9.160;2023-11-19T09:05:52;2.40;;;0.70;;
3465;SDS011;1747;48.884;9.160;2023-11-19T09:08:19;2.20;;;0.60;;
3465;SDS011;1747;48.884;9.160;2023-11-19T09:10:46;1.85;;;0.43;;
3465;SDS011;1747;48.884;9.160;2023-11-19T09:13:13;1.08;;;0.40;;
3465;SDS011;1747;48.884;9.160;2023-11-19T09:15:40;0.70;;;0.43;;
3465;SDS011;1747;48.884;9.160;2023-11-19T09:18:07;1.38;;;0.40;;
3465;SDS011;1747;48.884;9.160;2023-11-19T09:20:34;1.45;;;0.40;;
3465;SDS011;1747;48.884;9.160;2023-11-19T09:23:05;3.08;;;0.50;;
3465;SDS011;1747;48.884;9.160;2023-11-19T09:25:34;0.63;;;0.50;;
3465;SDS011;1747;48.884;9.160;2023-11-19T09:28:00;0.93;;;0.47;;
3465;SDS011;1747;48.884;9.160;2023-11-19T09:30:27;2.67;;;1.30;;
3465;SDS011;1747;48.884;9.160;2023-11-19T09:32:54;2.97;;;1.08;;
3465;SDS011;1747;48.884;9.160;2023-11-19T09:35:21;1.15;;;0.50;;
3465;SDS011;1747;48.884;9.160;2023-11-19T09:37:48;2.05;;;0.57;;
3465;SDS011;1747;48.884;9.160;2023-11-19T09:40:16;1.65;;;0.40;;
3465;SDS011;1747;48.884;9.160;2023-11-19T09:42:45;1.20;;;0.63;;
3465;SDS011;1747;48.884;9.160;2023-11-19T09:45:14;1.90;;;0.50;;
3465;SDS011;1747;48.884;9.160;2023-11-19T09:47:42;1.98;;;0.45;;
3465;SDS011;1747;48.884;9.160;2023-11-19T09:50:12;1.45;;;0.32;;
3465;SDS011;1747;48.884;9.160;2023-11-19T09:52:41;2.08;;;0.43;;
3465;SDS011;1747;48.884;9.160;2023-11-19T09:55:08;1.55;;;0.52;;
3465;SDS011;1747;48.884;9.160;2023-11-19T09:57:36;1.30;;;0.40;;
3465;SDS011;1747;48.884;9.160;2023-11-19T10:00:06;1.42;;;0.40;;
3465;SDS011;1747;48.884;9.160;2023-11-19T10:02:35;0.55;;;0.40;;
3465;SDS011;1747;48.884;9.160;2023-11-19T10:05:04;1.98;;;0.50;;
3465;SDS011;1747;48.884;9.160;2023-11-19T10:07:33;0.70;;;0.40;;
3465;SDS011;1747;48.884;9.160;2023-11-19T10:10:00;0.75;;;0.45;;
3465;SDS011;1747;48.884;9.160;2023-11-19T10:12:29;1.70;;;0.60;;
3465;SDS011;1747;48.884;9.160;2023-11-19T10:14:58;1.33;;;0.40;;
3465;SDS011;1747;48.884;9.160;2023-11-19T10:17:28;2.22;;;0.50;;
3465;SDS011;1747;48.884;9.160;2023-11-19T10:19:58;0.45;;;0.43;;
3465;SDS011;1747;48.884;9.160;2023-11-19T10:22:25;1.23;;;0.57;;
3465;SDS011;1747;48.884;9.160;2023-11-19T10:24:53;1.25;;;0.50;;
3465;SDS011;1747;48.884;9.160;2023-11-19T10:27:21;1.98;;;0.47;;
3465;SDS011;1747;48.884;9.160;2023-11-19T10:29:50;5.32;;;0.50;;
3465;SDS011;1747;48.884;9.160;2023-11-19T10:32:18;3.03;;;0.30;;
3465;SDS011;1747;48.884;9.160;2023-11-19T10:34:45;1.00;;;0.40;;
3465;SDS011;1747;48.884;9.160;2023-11-19T10:37:27;1.38;;;0.38;;
3465;SDS011;1747;48.884;9.160;2023-11-19T10:39:55;0.98;;;0.38;;
3465;SDS011;1747;48.884;9.160;2023-11-19T10:42:22;0.63;;;0.30;;
3465;SDS011;1747;48.884;9.160;2023-11-19T10:44:49;1.75;;;0.50;;
3465;SDS011;1747;48.884;9.160;2023-11-19T10:47:16;0.93;;;0.40;;
3465;SDS011;1747;48.884;9.160;2023-11-19T10:49:48;1.58;;;0.30;;
3465;SDS011;1747;48.884;9.160;2023-11-19T10:52:17;0.55;;;0.40;;
3465;SDS011;1747;48.884;9.160;2023-11-19T10:54:47;1.58;;;0.50;;
3465;SDS011;1747;48.884;9.160;2023-11-19T10:57:18;1.50;;;0.45;;
3465;SDS011;1747;48.884;9.160;2023-11-19T10:59:47;1.08;;;0.40;;
3465;SDS011;1747;48.884;9.160;2023-11-19T11:02:16;1.10;;;0.30;;
3465;SDS011;1747;48.884;9.160;2023-11-19T11:04:48;1.55;;;0.40;;
3465;SDS011;1747;48.884;9.160;2023-11-19T11:07:16;1.95;;;0.43;;
3465;SDS011;1747;48.884;9.160;2023-11-19T11:09:47;2.67;;;0.60;;
3465;SDS011;1747;48.884;9.160;2023-11-19T11:12:15;1.77;;;0.50;;
3465;SDS011;1747;48.884;9.160;2023-11-19T11:14:43;1.77;;;0.40;;
3465;SDS011;1747;48.884;9.160;2023-11-19T11:17:12;1.85;;;0.60;;
3465;SDS011;1747;48.884;9.160;2023-11-19T11:19:44;0.70;;;0.50;;
3465;SDS011;1747;48.884;9.160;2023-11-19T11:22:11;2.35;;;0.40;;
3465;SDS011;1747;48.884;9.160;2023-11-19T11:24:56;1.65;;;0.55;;
3465;SDS011;1747;48.884;9.160;2023-11-19T11:30:46;3.72;;;0.80;;
3465;SDS011;1747;48.884;9.160;2023-11-19T11:33:26;2.15;;;0.52;;
3465;SDS011;1747;48.884;9.160;2023-11-19T11:36:10;1.33;;;0.45;;
3465;SDS011;1747;48.884;9.160;2023-11-19T11:38:42;2.22;;;0.50;;
3465;SDS011;1747;48.884;9.160;2023-11-19T11:41:16;1.35;;;0.57;;
3465;SDS011;1747;48.884;9.160;2023-11-19T11:43:45;0.70;;;0.50;;
3465;SDS011;1747;48.884;9.160;2023-11-19T11:49:26;1.75;;;0.60;;
3465;SDS011;1747;48.884;9.160;2023-11-19T11:52:02;0.68;;;0.45;;
3465;SDS011;1747;48.884;9.160;2023-11-19T11:54:30;1.35;;;0.88;;
3465;SDS011;1747;48.884;9.160;2023-11-19T11:59:25;5.07;;;0.52;;
3465;SDS011;1747;48.884;9.160;2023-11-19T12:01:57;1.88;;;1.08;;
3465;SDS011;1747;48.884;9.160;2023-11-19T12:04:25;5.30;;;0.50;;
3465;SDS011;1747;48.884;9.160;2023-11-19T12:07:04;2.35;;;0.70;;
3465;SDS011;1747;48.884;9.160;2023-11-19T12:09:32;1.23;;;0.57;;
3465;SDS011;1747;48.884;9.160;2023-11-19T12:12:17;3.58;;;0.73;;
3465;SDS011;1747;48.884;9.160;2023-11-19T12:15:05;2.35;;;0.70;;
3465;SDS011;1747;48.884;9.160;2023-11-19T12:17:36;3.25;;;0.70;;
3465;SDS011;1747;48.884;9.160;2023-11-19T12:20:10;1.77;;;0.80;;
3465;SDS011;1747;48.884;9.160;2023-11-19T12:22:39;2.17;;;0.85;;
3465;SDS011;1747;48.884;9.160;2023-11-19T12:25:07;3.08;;;1.27;;
3465;SDS011;1747;48.884;9.160;2023-11-19T12:27:35;0.40;;;0.40;;
3465;SDS011;1747;48.884;9.160;2023-11-19T12:30:02;3.75;;;1.02;;
3465;SDS011;1747;48.884;9.160;2023-11-19T12:35:15;5.13;;;0.50;;
3465;SDS011;1747;48.884;9.160;2023-11-19T12:37:46;1.15;;;0.60;;
3465;SDS011;1747;48.884;9.160;2023-11-19T12:40:16;1.80;;;0.60;;
3465;SDS011;1747;48.884;9.160;2023-11-19T12:42:51;2.13;;;0.73;;
3465;SDS011;1747;48.884;9.160;2023-11-19T12:45:19;0.60;;;0.60;;
3465;SDS011;1747;48.884;9.160;2023-11-19T12:47:48;1.20;;;0.50;;
3465;SDS011;1747;48.884;9.160;2023-11-19T12:50:17;2.10;;;0.47;;
3465;SDS011;1747;48.884;9.160;2023-11-19T12:52:56;1.20;;;0.70;;
3465;SDS011;1747;48.884;9.160;2023-11-19T12:55:27;1.15;;;0.73;;
3465;SDS011;1747;48.884;9.160;2023-11-19T12:57:55;1.80;;;0.50;;
3465;SDS011;1747;48.884;9.160;2023-11-19T13:00:25;1.02;;;0.50;;
3465;SDS011;1747;48.884;9.160;2023-11-19T13:02:53;2.05;;;0.60;;
3465;SDS011;1747;48.884;9.160;2023-11-19T13:05:23;1.58;;;0.60;;
3465;SDS011;1747;48.884;9.160;2023-11-19T13:10:58;3.10;;;0.60;;
3465;SDS011;1747;48.884;9.160;2023-11-19T13:13:26;2.45;;;0.63;;
3465;SDS011;1747;48.884;9.160;2023-11-19T13:15:53;1.88;;;0.50;;
3465;SDS011;1747;48.884;9.160;2023-11-19T13:18:28;0.73;;;0.50;;
3465;SDS011;1747;48.884;9.160;2023-11-19T13:20:55;0.60;;;0.60;;
3465;SDS011;1747;48.884;9.160;2023-11-19T13:23:23;1.85;;;0.55;;
3465;SDS011;1747;48.884;9.160;2023-11-19T13:25:50;1.48;;;0.65;;
3465;SDS011;1747;48.884;9.160;2023-11-19T13:28:18;2.45;;;0.80;;
3465;SDS011;1747;48.884;9.160;2023-11-19T13:30:45;1.38;;;0.50;;
3465;SDS011;1747;48.884;9.160;2023-11-19T13:33:12;0.75;;;0.52;;
3465;SDS011;1747;48.884;9.160;2023-11-19T13:35:39;1.95;;;0.60;;
3465;SDS011;1747;48.884;9.160;2023-11-19T13:38:07;1.25;;;0.50;;
3465;SDS011;1747;48.884;9.160;2023-11-19T13:40:34;2.03;;;0.82;;
3465;SDS011;1747;48.884;9.160;2023-11-19T13:43:01;1.25;;;0.30;;
3465;SDS011;1747;48.884;9.160;2023-11-19T13:45:30;0.60;;;0.47;;
3465;SDS011;1747;48.884;9.160;2023-11-19T13:47:59;1.10;;;0.40;;
3465;SDS011;1747;48.884;9.160;2023-11-19T13:50:26;1.77;;;0.50;;
3465;SDS011;1747;48.884;9.160;2023-11-19T13:52:53;0.95;;;0.50;;
3465;SDS011;1747;48.884;9.160;2023-11-19T13:55:21;1.15;;;0.50;;
3465;SDS011;1747;48.884;9.160;2023-11-19T13:57:49;0.73;;;0.43;;
3465;SDS011;1747;48.884;9.160;2023-11-19T14:00:17;1.02;;;0.50;;
3465;SDS011;1747;48.884;9.160;2023-11-19T14:02:46;0.73;;;0.35;;
3465;SDS011;1747;48.884;9.160;2023-11-19T14:05:14;0.60;;;0.40;;
3465;SDS011;1747;48.884;9.160;2023-11-19T14:07:42;1.85;;;0.73;;
3465;SDS011;1747;48.884;9.160;2023-11-19T14:10:11;1.48;;;0.43;;
3465;SDS011;1747;48.884;9.160;2023-11-19T14:12:38;1.48;;;0.43;;
3465;SDS011;1747;48.884;9.160;2023-11-19T14:15:05;1.85;;;0.50;;
3465;SDS011;1747;48.884;9.160;2023-11-19T14:17:34;1.45;;;0.50;;
3465;SDS011;1747;48.884;9.160;2023-11-19T14:20:02;0.75;;;0.60;;
3465;SDS011;1747;48.884;9.160;2023-11-19T14:22:37;2.35;;;0.68;;
3465;SDS011;1747;48.884;9.160;2023-11-19T14:25:04;3.30;;;0.50;;
3465;SDS011;1747;48.884;9.160;2023-11-19T14:27:34;0.43;;;0.40;;
3465;SDS011;1747;48.884;9.160;2023-11-19T14:30:01;2.10;;;0.40;;
3465;SDS011;1747;48.884;9.160;2023-11-19T14:32:29;1.20;;;0.57;;
3465;SDS011;1747;48.884;9.160;2023-11-19T14:34:56;1.88;;;0.40;;
3465;SDS011;1747;48.884;9.160;2023-11-19T14:37:24;0.90;;;0.45;;
3465;SDS011;1747;48.884;9.160;2023-11-19T14:39:51;1.17;;;0.57;;
3465;SDS011;1747;48.884;9.160;2023-11-19T14:42:17;1.42;;;0.55;;
3465;SDS011;1747;48.884;9.160;2023-11-19T14:44:44;1.08;;;0.50;;
3465;SDS011;1747;48.884;9.160;2023-11-19T14:47:11;2.10;;;0.70;;
3465;SDS011;1747;48.884;9.160;2023-11-19T14:49:38;0.82;;;0.47;;
3465;SDS011;1747;48.884;9.160;2023-11-19T14:52:05;2.70;;;0.60;;
3465;SDS011;1747;48.884;9.160;2023-11-19T14:54:33;2.00;;;0.60;;
3465;SDS011;1747;48.884;9.160;2023-11-19T14:57:00;1.80;;;0.57;;
3465;SDS011;1747;48.884;9.160;2023-11-19T14:59:28;1.60;;;0.50;;
3465;SDS011;1747;48.884;9.160;2023-11-19T15:01:55;1.38;;;0.50;;
3465;SDS011;1747;48.884;9.160;2023-11-19T15:04:22;6.47;;;1.58;;
3465;SDS011;1747;48.884;9.160;2023-11-19T15:06:49;0.95;;;0.47;;
3465;SDS011;1747;48.884;9.160;2023-11-19T15:09:16;1.15;;;0.50;;
3465;SDS011;1747;48.884;9.160;2023-11-19T15:11:44;0.85;;;0.35;;
3465;SDS011;1747;48.884;9.160;2023-11-19T15:14:12;1.70;;;0.47;;
3465;SDS011;1747;48.884;9.160;2023-11-19T15:16:40;2.33;;;0.82;;
3465;SDS011;1747;48.884;9.160;2023-11-19T15:19:07;2.58;;;0.63;;
3465;SDS011;1747;48.884;9.160;2023-11-19T15:21:33;0.70;;;0.50;;
3465;SDS011;1747;48.884;9.160;2023-11-19T15:24:00;2.28;;;0.60;;
3465;SDS011;1747;48.884;9.160;2023-11-19T15:26:29;0.70;;;0.50;;
3465;SDS011;1747;48.884;9.160;2023-11-19T15:28:57;2.08;;;0.57;;
3465;SDS011;1747;48.884;9.160;2023-11-19T15:31:24;0.70;;;0.50;;
3465;SDS011;1747;48.884;9.160;2023-11-19T15:33:51;1.20;;;0.40;;
3465;SDS011;1747;48.884;9.160;2023-11-19T15:36:19;1.75;;;0.35;;
3465;SDS011;1747;48.884;9.160;2023-11-19T15:38:46;0.95;;;0.45;;
3465;SDS011;1747;48.884;9.160;2023-11-19T15:41:13;1.10;;;0.43;;
3465;SDS011;1747;48.884;9.160;2023-11-19T15:43:40;0.88;;;0.50;;